createdAt,value
2023-04-12T00:00:13.760Z,0.62
2023-04-12T00:01:13.823Z,0.74
2023-04-12T00:02:13.959Z,0.41
2023-04-12T00:03:14.016Z,0.67
2023-04-12T00:04:14.222Z,0.59
2023-04-12T00:05:14.178Z,0.42
2023-04-12T00:06:14.068Z,0.38
2023-04-12T00:07:14.111Z,0.70
2023-04-12T00:08:14.178Z,0.41
2023-04-12T00:09:14.187Z,0.40
2023-04-12T00:10:14.180Z,0.77
2023-04-12T00:11:14.261Z,0.41
2023-04-12T00:12:14.250Z,0.61
2023-04-12T00:13:14.336Z,0.37
2023-04-12T00:14:14.304Z,0.58
2023-04-12T00:15:14.355Z,0.64
2023-04-12T00:16:14.398Z,0.50
2023-04-12T00:17:14.406Z,0.30
2023-04-12T00:18:14.398Z,0.62
2023-04-12T00:19:14.470Z,0.66
2023-04-12T00:20:14.476Z,0.54
2023-04-12T00:21:14.457Z,0.46
2023-04-12T00:22:14.518Z,0.67
2023-04-12T00:23:14.507Z,0.39
2023-04-12T00:24:14.532Z,0.69
2023-04-12T00:25:14.579Z,0.49
2023-04-12T00:26:14.606Z,0.57
2023-04-12T00:27:14.578Z,0.58
2023-04-12T00:28:14.577Z,0.46
2023-04-12T00:29:14.682Z,0.32
2023-04-12T00:30:14.633Z,0.56
2023-04-12T00:31:14.677Z,0.57
2023-04-12T00:32:14.692Z,0.72
2023-04-12T00:33:14.691Z,0.33
2023-04-12T00:34:14.693Z,0.50
2023-04-12T00:35:14.675Z,0.44
2023-04-12T00:36:14.742Z,0.60
2023-04-12T00:37:14.750Z,0.51
2023-04-12T00:38:14.743Z,0.79
2023-04-12T00:39:14.689Z,0.55
2023-04-12T00:40:14.709Z,0.46
2023-04-12T00:41:14.697Z,0.50
2023-04-12T00:42:14.732Z,0.70
2023-04-12T00:43:14.800Z,0.44
2023-04-12T00:44:14.723Z,0.46
2023-04-12T00:45:14.744Z,0.45
2023-04-12T00:46:14.806Z,0.58
2023-04-12T00:47:14.802Z,0.44
2023-04-12T00:48:14.748Z,0.84
2023-04-12T00:49:14.713Z,0.48
2023-04-12T00:50:14.774Z,0.54
2023-04-12T00:51:14.729Z,0.54
2023-04-12T00:52:14.711Z,0.59
2023-04-12T00:53:14.754Z,0.49
2023-04-12T00:54:14.747Z,0.53
2023-04-12T00:55:14.716Z,0.63
2023-04-12T00:56:14.713Z,0.55
2023-04-12T00:57:14.720Z,0.50
2023-04-12T00:58:14.744Z,0.64
2023-04-12T00:59:14.699Z,0.45
2023-04-12T01:00:14.691Z,0.46
2023-04-12T01:01:14.860Z,0.62
2023-04-12T01:02:14.890Z,0.69
2023-04-12T01:03:15.086Z,0.47
2023-04-12T01:04:14.848Z,0.55
2023-04-12T01:05:15.017Z,0.53
2023-04-12T01:06:14.734Z,0.40
2023-04-12T01:07:14.707Z,0.49
2023-04-12T01:08:14.774Z,0.72
2023-04-12T01:09:14.714Z,0.42
2023-04-12T01:10:14.772Z,0.45
2023-04-12T01:11:14.751Z,0.68
2023-04-12T01:12:14.731Z,0.50
2023-04-12T01:13:14.748Z,0.40
2023-04-12T01:14:14.748Z,1.11
2023-04-12T01:15:14.761Z,0.48
2023-04-12T01:16:14.751Z,0.38
2023-04-12T01:17:14.690Z,0.41
2023-04-12T01:18:14.692Z,0.53
2023-04-12T01:19:14.699Z,0.51
2023-04-12T01:20:14.708Z,0.39
2023-04-12T01:21:14.714Z,0.67
2023-04-12T01:22:14.720Z,0.26
2023-04-12T01:23:14.731Z,0.52
2023-04-12T01:24:14.731Z,0.52
2023-04-12T01:25:14.759Z,0.58
2023-04-12T01:26:14.843Z,0.64
2023-04-12T01:27:14.711Z,0.55
2023-04-12T01:28:14.718Z,0.57
2023-04-12T01:29:14.686Z,0.58
2023-04-12T01:30:14.740Z,0.68
2023-04-12T01:31:14.853Z,0.50
2023-04-12T01:32:14.903Z,0.46
2023-04-12T01:33:14.800Z,0.43
2023-04-12T01:34:14.808Z,0.46
2023-04-12T01:35:14.806Z,0.59
2023-04-12T01:36:14.812Z,0.67
2023-04-12T01:37:15.185Z,0.48
2023-04-12T01:38:15.089Z,1.03
2023-04-12T01:39:15.165Z,0.43
2023-04-12T01:40:15.420Z,0.30
2023-04-12T01:41:14.964Z,0.61
2023-04-12T01:42:14.990Z,0.76
2023-04-12T01:43:14.912Z,0.30
2023-04-12T01:44:14.874Z,0.42
2023-04-12T01:45:14.883Z,0.43
2023-04-12T01:46:14.935Z,0.62
2023-04-12T01:47:14.980Z,0.55
2023-04-12T01:48:14.957Z,0.41
2023-04-12T01:49:14.957Z,0.60
2023-04-12T01:50:14.966Z,0.52
2023-04-12T01:51:14.977Z,0.55
2023-04-12T01:52:14.999Z,0.53
2023-04-12T01:53:14.975Z,0.34
2023-04-12T01:54:14.994Z,0.62
2023-04-12T01:55:15.041Z,0.47
2023-04-12T01:56:15.017Z,0.34
2023-04-12T01:57:15.060Z,0.67
2023-04-12T01:58:15.010Z,0.71
2023-04-12T01:59:15.092Z,0.61
2023-04-12T02:00:15.149Z,0.84
2023-04-12T02:01:15.134Z,0.67
2023-04-12T02:02:15.130Z,0.41
2023-04-12T02:03:15.319Z,0.75
2023-04-12T02:04:15.210Z,0.53
2023-04-12T02:05:15.204Z,0.58
2023-04-12T02:06:15.184Z,0.32
2023-04-12T02:07:15.181Z,0.50
2023-04-12T02:08:15.182Z,0.55
2023-04-12T02:09:15.202Z,0.52
2023-04-12T02:10:15.267Z,0.35
2023-04-12T02:11:15.218Z,0.42
2023-04-12T02:12:15.210Z,0.41
2023-04-12T02:13:15.230Z,0.44
2023-04-12T02:14:15.243Z,0.57
2023-04-12T02:15:15.284Z,0.56
2023-04-12T02:16:15.337Z,0.67
2023-04-12T02:17:15.303Z,0.50
2023-04-12T02:18:15.304Z,0.64
2023-04-12T02:19:15.348Z,0.45
2023-04-12T02:20:15.317Z,0.47
2023-04-12T02:21:15.446Z,0.71
2023-04-12T02:22:15.355Z,0.33
2023-04-12T02:23:15.353Z,0.61
2023-04-12T02:24:15.397Z,0.47
2023-04-12T02:25:15.419Z,0.51
2023-04-12T02:26:15.406Z,0.71
2023-04-12T02:27:15.433Z,0.73
2023-04-12T02:28:15.423Z,0.58
2023-04-12T02:29:15.489Z,0.54
2023-04-12T02:30:15.482Z,0.40
2023-04-12T02:31:15.628Z,0.60
2023-04-12T02:32:15.498Z,0.41
2023-04-12T02:33:15.754Z,0.64
2023-04-12T02:34:15.765Z,0.65
2023-04-12T02:35:15.866Z,0.46
2023-04-12T02:36:15.673Z,0.51
2023-04-12T02:37:15.644Z,0.69
2023-04-12T02:38:15.599Z,0.32
2023-04-12T02:39:15.601Z,0.26
2023-04-12T02:40:15.683Z,0.48
2023-04-12T02:41:15.671Z,0.69
2023-04-12T02:42:15.688Z,0.32
2023-04-12T02:43:15.919Z,0.41
2023-04-12T02:44:15.758Z,0.48
2023-04-12T02:45:15.741Z,0.76
2023-04-12T02:46:15.791Z,0.62
2023-04-12T02:47:15.782Z,0.66
2023-04-12T02:48:15.788Z,0.59
2023-04-12T02:49:15.833Z,0.36
2023-04-12T02:50:15.888Z,0.56
2023-04-12T02:51:15.889Z,0.56
2023-04-12T02:52:15.893Z,0.53
2023-04-12T02:53:15.913Z,0.47
2023-04-12T02:54:15.958Z,0.52
2023-04-12T02:55:15.969Z,0.75
2023-04-12T02:56:15.976Z,0.70
2023-04-12T02:57:15.999Z,0.55
2023-04-12T02:58:15.983Z,0.62
2023-04-12T02:59:16.007Z,0.74
2023-04-12T03:00:16.072Z,1.03
2023-04-12T03:01:16.082Z,0.68
2023-04-12T03:02:16.141Z,0.73
2023-04-12T03:03:16.155Z,0.25
2023-04-12T03:04:16.299Z,0.57
2023-04-12T03:05:16.139Z,0.52
2023-04-12T03:06:16.167Z,0.60
2023-04-12T03:07:16.161Z,0.58
2023-04-12T03:08:16.209Z,0.41
2023-04-12T03:09:16.206Z,0.29
2023-04-12T03:10:16.335Z,0.51
2023-04-12T03:11:16.296Z,0.47
2023-04-12T03:12:16.343Z,0.61
2023-04-12T03:13:16.300Z,0.51
2023-04-12T03:14:16.302Z,0.43
2023-04-12T03:15:16.361Z,0.45
2023-04-12T03:16:16.519Z,0.59
2023-04-12T03:17:16.425Z,0.61
2023-04-12T03:18:16.435Z,0.79
2023-04-12T03:19:16.437Z,0.30
2023-04-12T03:20:16.489Z,0.44
2023-04-12T03:21:16.513Z,0.66
2023-04-12T03:22:16.546Z,0.69
2023-04-12T03:23:16.515Z,0.73
2023-04-12T03:24:16.581Z,0.48
2023-04-12T03:25:16.618Z,0.32
2023-04-12T03:26:16.598Z,0.40
2023-04-12T03:27:16.644Z,0.68
2023-04-12T03:28:16.662Z,0.50
2023-04-12T03:29:16.762Z,0.51
2023-04-12T03:30:16.738Z,0.71
2023-04-12T03:31:16.745Z,0.60
2023-04-12T03:32:17.200Z,0.61
2023-04-12T03:33:16.797Z,0.69
2023-04-12T03:34:16.790Z,0.50
2023-04-12T03:35:16.869Z,0.44
2023-04-12T03:36:16.876Z,0.52
2023-04-12T03:37:16.897Z,0.73
2023-04-12T03:38:16.937Z,0.62
2023-04-12T03:39:16.962Z,0.51
2023-04-12T03:40:16.959Z,0.67
2023-04-12T03:41:17.013Z,0.42
2023-04-12T03:42:31.600Z,0.71
2023-04-12T03:43:18.017Z,0.53
2023-04-12T03:44:17.057Z,0.55
2023-04-12T03:45:17.019Z,0.47
2023-04-12T03:46:17.070Z,0.48
2023-04-12T03:47:16.990Z,0.52
2023-04-12T03:48:16.954Z,0.43
2023-04-12T03:49:16.952Z,0.42
2023-04-12T03:50:16.990Z,0.61
2023-04-12T03:51:16.950Z,0.53
2023-04-12T03:52:17.301Z,0.45
2023-04-12T03:53:17.125Z,0.73
2023-04-12T03:54:17.128Z,0.64
2023-04-12T03:55:17.093Z,0.65
2023-04-12T03:56:17.044Z,0.39
2023-04-12T03:57:16.937Z,0.62
2023-04-12T03:58:16.923Z,0.64
2023-04-12T03:59:16.923Z,0.48
2023-04-12T04:00:16.882Z,0.54
2023-04-12T04:01:16.910Z,1.09
2023-04-12T04:02:16.953Z,0.45
2023-04-12T04:03:17.022Z,0.56
2023-04-12T04:04:17.149Z,0.44
2023-04-12T04:05:17.078Z,0.45
2023-04-12T04:06:17.018Z,0.53
2023-04-12T04:07:17.104Z,0.91
2023-04-12T04:08:17.099Z,0.56
2023-04-12T04:09:17.099Z,0.57
2023-04-12T04:10:17.185Z,1.00
2023-04-12T04:11:17.227Z,0.56
2023-04-12T04:12:17.324Z,0.47
2023-04-12T04:13:17.268Z,0.76
2023-04-12T04:14:17.302Z,0.76
2023-04-12T04:15:17.319Z,0.59
2023-04-12T04:16:17.356Z,0.57
2023-04-12T04:17:17.322Z,0.67
2023-04-12T04:18:17.410Z,0.47
2023-04-12T04:19:17.368Z,0.76
2023-04-12T04:20:18.379Z,0.88
2023-04-12T04:21:17.481Z,0.55
2023-04-12T04:22:17.527Z,0.75
2023-04-12T04:23:17.556Z,0.68
2023-04-12T04:24:17.538Z,0.60
2023-04-12T04:25:17.605Z,0.74
2023-04-12T04:26:17.669Z,0.71
2023-04-12T04:27:17.686Z,0.50
2023-04-12T04:28:17.669Z,0.92
2023-04-12T04:29:17.729Z,0.79
2023-04-12T04:30:17.721Z,0.78
2023-04-12T04:31:17.940Z,0.83
2023-04-12T04:32:17.902Z,0.60
2023-04-12T04:33:17.843Z,0.55
2023-04-12T04:34:17.854Z,0.62
2023-04-12T04:35:17.885Z,0.83
2023-04-12T04:36:17.946Z,0.79
2023-04-12T04:37:17.974Z,0.86
2023-04-12T04:38:17.952Z,0.65
2023-04-12T04:39:18.018Z,0.79
2023-04-12T04:40:18.052Z,0.55
2023-04-12T04:41:18.041Z,0.64
2023-04-12T04:42:18.106Z,0.51
2023-04-12T04:43:18.194Z,0.89
2023-04-12T04:44:18.135Z,0.74
2023-04-12T04:45:18.146Z,0.66
2023-04-12T04:46:18.231Z,0.77
2023-04-12T04:47:18.212Z,0.51
2023-04-12T04:48:18.250Z,0.70
2023-04-12T04:49:18.264Z,0.67
2023-04-12T04:50:18.279Z,0.69
2023-04-12T04:51:18.381Z,0.57
2023-04-12T04:52:18.394Z,0.81
2023-04-12T04:53:18.386Z,0.67
2023-04-12T04:54:18.410Z,0.66
2023-04-12T04:55:18.463Z,0.56
2023-04-12T04:56:18.472Z,0.54
2023-04-12T04:57:18.517Z,0.59
2023-04-12T04:58:18.536Z,0.75
2023-04-12T04:59:18.540Z,0.75
2023-04-12T05:00:18.615Z,0.70
2023-04-12T05:01:18.708Z,0.50
2023-04-12T05:02:18.754Z,0.57
2023-04-12T05:03:18.747Z,0.59
2023-04-12T05:04:18.779Z,0.39
2023-04-12T05:05:18.736Z,0.61
2023-04-12T05:06:18.742Z,0.61
2023-04-12T05:07:18.803Z,0.65
2023-04-12T05:08:18.840Z,0.61
2023-04-12T05:09:18.802Z,0.55
2023-04-12T05:10:18.881Z,0.64
2023-04-12T05:11:18.921Z,0.86
2023-04-12T05:12:18.929Z,0.49
2023-04-12T05:13:18.934Z,0.67
2023-04-12T05:14:19.168Z,0.82
2023-04-12T05:15:19.038Z,0.58
2023-04-12T05:16:19.079Z,0.70
2023-04-12T05:17:19.098Z,0.74
2023-04-12T05:18:19.109Z,0.50
2023-04-12T05:19:19.219Z,0.45
2023-04-12T05:20:19.186Z,0.59
2023-04-12T05:21:19.183Z,0.59
2023-04-12T05:22:19.201Z,0.48
2023-04-12T05:23:19.278Z,0.91
2023-04-12T05:24:19.289Z,0.78
2023-04-12T05:25:19.365Z,0.96
2023-04-12T05:26:19.322Z,0.94
2023-04-12T05:27:19.366Z,0.69
2023-04-12T05:28:19.384Z,0.63
2023-04-12T05:29:19.453Z,0.51
2023-04-12T05:30:19.557Z,0.79
2023-04-12T05:31:19.634Z,0.68
2023-04-12T05:32:19.695Z,0.60
2023-04-12T05:33:19.580Z,0.81
2023-04-12T05:34:19.660Z,1.29
2023-04-12T05:35:19.713Z,2.26
2023-04-12T05:36:19.772Z,1.97
2023-04-12T05:37:19.777Z,2.43
2023-04-12T05:38:19.792Z,3.05
2023-04-12T05:39:20.741Z,2.97
2023-04-12T05:40:19.843Z,2.74
2023-04-12T05:41:19.899Z,3.31
2023-04-12T05:42:19.914Z,2.96
2023-04-12T05:43:19.942Z,3.30
2023-04-12T05:44:19.975Z,2.68
2023-04-12T05:45:19.991Z,3.50
2023-04-12T05:46:20.117Z,3.08
2023-04-12T05:47:19.995Z,2.84
2023-04-12T05:48:19.988Z,2.30
2023-04-12T05:49:20.429Z,2.41
2023-04-12T05:50:20.220Z,1.98
2023-04-12T05:51:27.820Z,2.31
2023-04-12T05:52:21.156Z,2.27
2023-04-12T05:53:20.159Z,2.19
2023-04-12T05:54:20.197Z,2.03
2023-04-12T05:55:20.114Z,2.11
2023-04-12T05:56:20.116Z,2.17
2023-04-12T05:57:20.945Z,2.06
2023-04-12T05:58:20.122Z,1.51
2023-04-12T05:59:20.090Z,2.27
2023-04-12T06:00:20.086Z,1.94
2023-04-12T06:01:20.069Z,1.67
2023-04-12T06:02:20.190Z,1.73
2023-04-12T06:03:20.224Z,1.79
2023-04-12T06:04:20.657Z,1.47
2023-04-12T06:05:20.162Z,1.88
2023-04-12T06:06:20.013Z,1.63
2023-04-12T06:07:20.447Z,1.70
2023-04-12T06:08:20.133Z,1.43
2023-04-12T06:09:20.159Z,1.98
2023-04-12T06:10:20.254Z,1.20
2023-04-12T06:11:20.363Z,1.81
2023-04-12T06:12:20.465Z,1.64
2023-04-12T06:13:20.974Z,1.77
2023-04-12T06:14:20.480Z,1.61
2023-04-12T06:15:21.950Z,1.30
2023-04-12T06:16:20.648Z,1.39
2023-04-12T06:17:20.672Z,1.90
2023-04-12T06:18:20.672Z,1.45
2023-04-12T06:19:20.853Z,1.94
2023-04-12T06:20:20.838Z,1.59
2023-04-12T06:21:20.847Z,1.44
2023-04-12T06:22:20.863Z,1.88
2023-04-12T06:23:20.965Z,1.67
2023-04-12T06:24:21.433Z,1.54
2023-04-12T06:25:21.062Z,1.08
2023-04-12T06:26:21.087Z,1.62
2023-04-12T06:27:21.176Z,1.22
2023-04-12T06:28:21.145Z,1.65
2023-04-12T06:29:21.174Z,0.94
2023-04-12T06:30:21.195Z,1.53
2023-04-12T06:31:21.291Z,1.31
2023-04-12T06:32:21.257Z,1.37
2023-04-12T06:33:21.331Z,1.22
2023-04-12T06:34:21.312Z,1.48
2023-04-12T06:35:21.314Z,1.29
2023-04-12T06:36:21.360Z,1.25
2023-04-12T06:37:21.376Z,1.43
2023-04-12T06:38:21.548Z,2.38
2023-04-12T06:39:21.500Z,2.58
2023-04-12T06:40:22.420Z,2.95
2023-04-12T06:41:21.493Z,2.82
2023-04-12T06:42:21.531Z,3.42
2023-04-12T06:43:21.930Z,3.46
2023-04-12T06:44:21.949Z,3.15
2023-04-12T06:45:21.621Z,2.50
2023-04-12T06:46:22.545Z,2.52
2023-04-12T06:47:21.750Z,2.40
2023-04-12T06:48:21.877Z,2.79
2023-04-12T06:49:21.917Z,2.65
2023-04-12T06:50:21.828Z,2.43
2023-04-12T06:51:21.987Z,2.36
2023-04-12T06:52:21.943Z,2.03
2023-04-12T06:53:21.947Z,2.01
2023-04-12T06:54:22.467Z,1.90
2023-04-12T06:55:22.112Z,2.45
2023-04-12T06:56:22.089Z,1.88
2023-04-12T06:57:22.071Z,2.24
2023-04-12T06:58:22.001Z,2.00
2023-04-12T06:59:22.038Z,1.71
2023-04-12T07:00:22.480Z,2.24
2023-04-12T07:01:22.464Z,1.97
2023-04-12T07:02:22.406Z,1.89
2023-04-12T07:03:22.439Z,1.97
2023-04-12T07:04:22.520Z,1.73
2023-04-12T07:05:22.444Z,2.01
2023-04-12T07:06:26.131Z,1.66
2023-04-12T07:07:22.395Z,1.65
2023-04-12T07:08:22.377Z,2.11
2023-04-12T07:09:22.403Z,1.91
2023-04-12T07:10:22.408Z,1.78
2023-04-12T07:11:22.726Z,1.98
2023-04-12T07:12:22.401Z,2.04
2023-04-12T07:13:22.410Z,1.85
2023-04-12T07:14:22.466Z,1.93
2023-04-12T07:15:22.449Z,1.67
2023-04-12T07:16:22.429Z,1.48
2023-04-12T07:17:22.379Z,2.24
2023-04-12T07:18:22.334Z,1.75
2023-04-12T07:19:22.942Z,1.69
2023-04-12T07:20:22.352Z,1.56
2023-04-12T07:21:22.492Z,1.83
2023-04-12T07:22:22.366Z,1.66
2023-04-12T07:23:22.471Z,1.59
2023-04-12T07:24:23.009Z,1.46
2023-04-12T07:25:22.388Z,1.81
2023-04-12T07:26:22.294Z,1.93
2023-04-12T07:27:22.282Z,1.70
2023-04-12T07:28:22.303Z,1.79
2023-04-12T07:29:22.457Z,1.35
2023-04-12T07:30:22.338Z,1.65
2023-04-12T07:31:22.248Z,1.17
2023-04-12T07:32:22.417Z,1.59
2023-04-12T07:33:22.359Z,1.65
2023-04-12T07:34:22.337Z,1.20
2023-04-12T07:35:22.238Z,1.44
2023-04-12T07:36:22.974Z,2.35
2023-04-12T07:37:24.021Z,2.66
2023-04-12T07:38:22.194Z,2.40
2023-04-12T07:39:22.248Z,2.06
2023-04-12T07:40:22.301Z,2.09
2023-04-12T07:41:22.190Z,2.07
2023-04-12T07:42:22.642Z,2.30
2023-04-12T07:43:22.240Z,2.41
2023-04-12T07:44:22.199Z,1.78
2023-04-12T07:45:22.212Z,1.90
2023-04-12T07:46:22.255Z,2.56
2023-04-12T07:47:22.272Z,2.02
2023-04-12T07:48:22.135Z,2.25
2023-04-12T07:49:22.136Z,1.76
2023-04-12T07:50:22.148Z,1.88
2023-04-12T07:51:22.161Z,2.01
2023-04-12T07:52:22.106Z,1.75
2023-04-12T07:53:22.134Z,1.74
2023-04-12T07:54:23.466Z,1.68
2023-04-12T07:55:22.075Z,1.86
2023-04-12T07:56:22.110Z,1.42
2023-04-12T07:57:22.148Z,1.89
2023-04-12T07:58:22.205Z,1.75
2023-04-12T07:59:22.262Z,1.42
2023-04-12T08:00:22.356Z,1.90
2023-04-12T08:01:22.428Z,1.66
2023-04-12T08:02:22.533Z,1.60
2023-04-12T08:03:22.491Z,1.97
2023-04-12T08:04:22.665Z,2.15
2023-04-12T08:05:22.643Z,1.56
2023-04-12T08:06:22.602Z,1.45
2023-04-12T08:07:24.162Z,1.73
2023-04-12T08:08:23.076Z,1.38
2023-04-12T08:09:22.720Z,1.66
2023-04-12T08:10:23.570Z,1.56
2023-04-12T08:11:22.911Z,1.51
2023-04-12T08:12:23.023Z,1.24
2023-04-12T08:13:22.875Z,1.29
2023-04-12T08:14:22.914Z,1.35
2023-04-12T08:15:23.055Z,1.18
2023-04-12T08:16:22.998Z,1.05
2023-04-12T08:17:23.093Z,1.57
2023-04-12T08:18:23.062Z,1.39
2023-04-12T08:19:23.106Z,1.42
2023-04-12T08:20:22.985Z,1.35
2023-04-12T08:21:23.066Z,1.65
2023-04-12T08:22:23.094Z,1.36
2023-04-12T08:23:22.992Z,1.49
2023-04-12T08:24:23.091Z,1.75
2023-04-12T08:25:23.152Z,1.61
2023-04-12T08:26:23.524Z,1.10
2023-04-12T08:27:23.047Z,1.28
2023-04-12T08:28:23.145Z,1.55
2023-04-12T08:29:23.038Z,2.09
2023-04-12T08:30:23.178Z,1.55
2023-04-12T08:31:23.138Z,1.70
2023-04-12T08:32:23.253Z,1.75
2023-04-12T08:33:23.207Z,1.89
2023-04-12T08:34:23.265Z,1.72
2023-04-12T08:35:23.329Z,1.78
2023-04-12T08:36:23.318Z,1.63
2023-04-12T08:37:23.334Z,1.74
2023-04-12T08:38:37.178Z,2.00
2023-04-12T08:39:24.387Z,1.66
2023-04-12T08:40:23.311Z,1.29
2023-04-12T08:41:23.361Z,1.96
2023-04-12T08:42:23.354Z,3.43
2023-04-12T08:43:23.328Z,1.87
2023-04-12T08:44:23.300Z,2.00
2023-04-12T08:45:24.042Z,1.85
2023-04-12T08:46:23.389Z,1.44
2023-04-12T08:47:23.526Z,1.34
2023-04-12T08:48:23.372Z,1.95
2023-04-12T08:49:23.256Z,1.94
2023-04-12T08:50:23.296Z,1.60
2023-04-12T08:51:23.444Z,3.71
2023-04-12T08:52:23.265Z,1.91
2023-04-12T08:53:23.202Z,2.00
2023-04-12T08:54:23.260Z,1.22
2023-04-12T08:55:23.400Z,1.58
2023-04-12T08:56:23.284Z,1.56
2023-04-12T08:57:23.268Z,2.03
2023-04-12T08:58:23.204Z,1.93
2023-04-12T08:59:23.727Z,1.63
2023-04-12T09:00:23.317Z,1.80
2023-04-12T09:01:23.423Z,1.54
2023-04-12T09:02:23.564Z,1.54
2023-04-12T09:03:23.614Z,1.29
2023-04-12T09:04:23.761Z,1.80
2023-04-12T09:05:23.684Z,1.21
2023-04-12T09:06:23.674Z,1.63
2023-04-12T09:07:23.672Z,4.12
2023-04-12T09:08:23.547Z,1.67
2023-04-12T09:09:23.996Z,1.21
2023-04-12T09:10:23.565Z,1.42
2023-04-12T09:11:23.605Z,1.13
2023-04-12T09:12:23.507Z,1.46
2023-04-12T09:13:23.637Z,1.55
2023-04-12T09:14:23.607Z,1.45
2023-04-12T09:15:23.723Z,1.31
2023-04-12T09:16:23.720Z,0.99
2023-04-12T09:17:24.600Z,1.89
2023-04-12T09:18:23.760Z,1.61
2023-04-12T09:19:24.096Z,1.42
2023-04-12T09:20:24.045Z,1.44
2023-04-12T09:21:23.875Z,1.26
2023-04-12T09:22:23.958Z,1.72
2023-04-12T09:23:24.028Z,0.96
2023-04-12T09:24:24.622Z,1.46
2023-04-12T09:25:24.102Z,1.42
2023-04-12T09:26:24.135Z,1.20
2023-04-12T09:27:24.121Z,1.32
2023-04-12T09:28:24.209Z,1.78
2023-04-12T09:29:24.211Z,1.56
2023-04-12T09:30:24.379Z,1.07
2023-04-12T09:31:31.862Z,1.52
2023-04-12T09:32:24.182Z,1.08
2023-04-12T09:33:24.203Z,1.19
2023-04-12T09:34:25.879Z,1.39
2023-04-12T09:35:24.220Z,1.46
2023-04-12T09:36:24.153Z,1.49
2023-04-12T09:37:24.120Z,1.94
2023-04-12T09:39:24.597Z,1.58
2023-04-12T09:40:24.148Z,1.68
2023-04-12T09:41:26.903Z,1.39
2023-04-12T09:42:33.316Z,1.16
2023-04-12T09:43:25.554Z,0.85
2023-04-12T09:44:24.074Z,1.40
2023-04-12T09:45:24.163Z,1.04
2023-04-12T09:46:24.220Z,1.22
2023-04-12T09:47:24.131Z,1.06
2023-04-12T09:48:24.552Z,1.20
2023-04-12T09:49:24.118Z,0.86
2023-04-12T09:50:24.060Z,0.89
2023-04-12T09:51:24.086Z,0.86
2023-04-12T09:52:24.021Z,0.98
2023-04-12T09:53:24.648Z,1.05
2023-04-12T09:54:24.151Z,0.60
2023-04-12T09:55:24.008Z,0.84
2023-04-12T09:56:23.995Z,1.10
2023-04-12T09:57:24.036Z,1.17
2023-04-12T09:58:24.086Z,0.94
2023-04-12T09:59:24.061Z,1.11
2023-04-12T10:00:24.020Z,0.97
2023-04-12T10:01:24.180Z,0.78
2023-04-12T10:02:24.229Z,1.10
2023-04-12T10:03:24.225Z,1.18
2023-04-12T10:04:24.293Z,0.84
2023-04-12T10:05:24.402Z,1.00
2023-04-12T10:06:24.069Z,1.09
2023-04-12T10:07:24.165Z,0.66
2023-04-12T10:08:24.128Z,0.82
2023-04-12T10:09:24.582Z,0.81
2023-04-12T10:10:24.216Z,0.77
2023-04-12T10:11:24.257Z,0.69
2023-04-12T10:12:25.032Z,0.94
2023-04-12T10:13:24.244Z,0.49
2023-04-12T10:14:24.297Z,1.01
2023-04-12T10:15:24.201Z,0.76
2023-04-12T10:16:24.242Z,2.51
2023-04-12T10:17:24.225Z,0.51
2023-04-12T10:18:24.238Z,0.74
2023-04-12T10:19:24.227Z,0.83
2023-04-12T10:20:27.370Z,0.76
2023-04-12T10:21:25.179Z,0.73
2023-04-12T10:22:24.208Z,0.75
2023-04-12T10:23:24.204Z,0.72
2023-04-12T10:24:24.555Z,0.88
2023-04-12T10:25:24.175Z,0.93
2023-04-12T10:26:24.282Z,0.85
2023-04-12T10:27:24.171Z,1.11
2023-04-12T10:28:24.317Z,1.40
2023-04-12T10:29:24.285Z,1.12
2023-04-12T10:30:24.333Z,1.05
2023-04-12T10:31:24.411Z,1.26
2023-04-12T10:32:24.546Z,1.30
2023-04-12T10:33:24.483Z,1.02
2023-04-12T10:34:24.515Z,1.34
2023-04-12T10:35:24.645Z,1.12
2023-04-12T10:36:24.692Z,1.18
2023-04-12T10:37:24.829Z,1.20
2023-04-12T10:38:24.829Z,1.44
2023-04-12T10:39:24.763Z,1.18
2023-04-12T10:40:24.811Z,1.06
2023-04-12T10:41:24.826Z,1.20
2023-04-12T10:42:25.144Z,0.85
2023-04-12T10:43:24.916Z,1.37
2023-04-12T10:44:24.938Z,0.94
2023-04-12T10:45:25.024Z,1.42
2023-04-12T10:46:25.098Z,0.97
2023-04-12T10:47:25.094Z,1.29
2023-04-12T10:48:25.035Z,1.06
2023-04-12T10:49:25.035Z,1.06
2023-04-12T10:50:25.117Z,0.93
2023-04-12T10:51:25.064Z,0.85
2023-04-12T10:52:25.095Z,1.05
2023-04-12T10:53:25.188Z,1.00
2023-04-12T10:54:25.086Z,0.79
2023-04-12T10:55:25.163Z,0.90
2023-04-12T10:56:25.219Z,1.22
2023-04-12T10:57:25.122Z,0.69
2023-04-12T10:58:25.217Z,0.86
2023-04-12T10:59:34.332Z,0.72
2023-04-12T11:00:26.252Z,0.73
2023-04-12T11:01:25.384Z,0.92
2023-04-12T11:02:25.547Z,1.15
2023-04-12T11:03:25.363Z,0.86
2023-04-12T11:04:25.343Z,1.17
2023-04-12T11:05:25.275Z,0.99
2023-04-12T11:06:27.810Z,0.61
2023-04-12T11:07:25.211Z,1.14
2023-04-12T11:08:25.174Z,1.35
2023-04-12T11:09:25.172Z,1.04
2023-04-12T11:10:25.176Z,1.46
2023-04-12T11:11:25.142Z,1.29
2023-04-12T11:12:25.146Z,1.51
2023-04-12T11:13:25.140Z,0.88
2023-04-12T11:14:25.134Z,0.90
2023-04-12T11:15:25.103Z,0.79
2023-04-12T11:16:25.131Z,1.08
2023-04-12T11:17:25.350Z,0.94
2023-04-12T11:18:25.090Z,0.99
2023-04-12T11:19:25.070Z,0.74
2023-04-12T11:20:25.092Z,1.04
2023-04-12T11:21:25.082Z,1.00
2023-04-12T11:22:25.051Z,1.63
2023-04-12T11:23:25.051Z,0.74
2023-04-12T11:24:25.157Z,0.69
2023-04-12T11:25:25.095Z,1.08
2023-04-12T11:26:24.991Z,0.58
2023-04-12T11:27:25.035Z,0.95
2023-04-12T11:28:29.818Z,0.95
2023-04-12T11:29:26.014Z,0.71
2023-04-12T11:30:24.992Z,0.66
2023-04-12T11:31:25.065Z,0.74
2023-04-12T11:32:25.128Z,0.88
2023-04-12T11:33:25.014Z,0.39
2023-04-12T11:34:24.946Z,0.59
2023-04-12T11:35:24.961Z,0.65
2023-04-12T11:36:25.038Z,0.43
2023-04-12T11:37:24.999Z,0.75
2023-04-12T11:38:24.946Z,0.64
2023-04-12T11:39:24.960Z,0.59
2023-04-12T11:40:24.965Z,0.61
2023-04-12T11:41:25.014Z,0.62
2023-04-12T11:42:25.033Z,0.55
2023-04-12T11:43:25.090Z,1.54
2023-04-12T11:44:25.135Z,0.45
2023-04-12T11:45:25.177Z,0.56
2023-04-12T11:46:25.328Z,0.42
2023-04-12T11:47:25.281Z,0.56
2023-04-12T11:48:25.318Z,0.40
2023-04-12T11:49:25.340Z,0.35
2023-04-12T11:50:25.377Z,0.79
2023-04-12T11:51:25.565Z,0.68
2023-04-12T11:52:25.451Z,0.82
2023-04-12T11:53:25.481Z,0.44
2023-04-12T11:54:25.508Z,0.49
2023-04-12T11:55:25.567Z,0.69
2023-04-12T11:56:25.639Z,0.60
2023-04-12T11:57:25.639Z,0.48
2023-04-12T11:58:25.649Z,0.40
2023-04-12T11:59:25.717Z,0.49
2023-04-12T12:00:25.718Z,1.03
2023-04-12T12:01:25.813Z,0.54
2023-04-12T12:02:27.715Z,0.40
2023-04-12T12:03:26.002Z,0.39
2023-04-12T12:04:25.973Z,0.76
2023-04-12T12:05:26.145Z,0.62
2023-04-12T12:06:26.400Z,0.60
2023-04-12T12:07:25.958Z,0.81
2023-04-12T12:08:25.753Z,0.33
2023-04-12T12:09:25.705Z,0.82
2023-04-12T12:10:42.045Z,0.64
2023-04-12T12:11:26.772Z,0.33
2023-04-12T12:12:25.733Z,0.43
2023-04-12T12:13:25.717Z,0.69
2023-04-12T12:14:25.697Z,0.53
2023-04-12T12:15:25.710Z,0.72
2023-04-12T12:16:25.896Z,0.49
2023-04-12T12:17:25.671Z,0.64
2023-04-12T12:18:25.670Z,0.32
2023-04-12T12:19:25.662Z,0.39
2023-04-12T12:20:25.646Z,0.29
2023-04-12T12:21:25.649Z,0.53
2023-04-12T12:22:25.658Z,0.48
2023-04-12T12:23:25.656Z,0.53
2023-04-12T12:24:25.676Z,0.58
2023-04-12T12:25:25.605Z,0.38
2023-04-12T12:26:25.659Z,0.41
2023-04-12T12:27:25.677Z,0.55
2023-04-12T12:28:25.603Z,0.57
2023-04-12T12:29:25.604Z,0.65
2023-04-12T12:30:25.559Z,0.45
2023-04-12T12:31:25.763Z,0.26
2023-04-12T12:32:25.615Z,0.50
2023-04-12T12:33:38.889Z,0.39
2023-04-12T12:34:26.605Z,0.37
2023-04-12T12:35:25.563Z,0.32
2023-04-12T12:36:25.595Z,0.23
2023-04-12T12:37:25.598Z,0.57
2023-04-12T12:38:32.117Z,0.44
2023-04-12T12:39:26.592Z,0.55
2023-04-12T12:40:25.520Z,0.33
2023-04-12T12:41:25.592Z,0.57
2023-04-12T12:42:25.587Z,0.81
2023-04-12T12:43:25.543Z,0.39
2023-04-12T12:44:25.540Z,0.28
2023-04-12T12:45:25.555Z,0.50
2023-04-12T12:46:27.842Z,0.69
2023-04-12T12:47:26.640Z,0.35
2023-04-12T12:48:25.511Z,0.31
2023-04-12T12:49:25.545Z,0.36
2023-04-12T12:50:25.522Z,0.27
2023-04-12T12:51:25.512Z,0.37
2023-04-12T12:52:25.476Z,0.58
2023-04-12T12:53:25.517Z,0.30
2023-04-12T12:54:36.660Z,0.33
2023-04-12T12:55:26.454Z,0.44
2023-04-12T12:56:25.544Z,0.37
2023-04-12T12:57:25.471Z,0.78
2023-04-12T12:58:25.472Z,0.39
2023-04-12T12:59:26.056Z,0.55
2023-04-12T13:00:25.500Z,0.54
2023-04-12T13:01:25.516Z,0.49
2023-04-12T13:02:25.605Z,0.47
2023-04-12T13:03:25.815Z,0.45
2023-04-12T13:04:25.553Z,0.77
2023-04-12T13:05:25.392Z,0.20
2023-04-12T13:06:25.417Z,0.44
2023-04-12T13:07:25.451Z,0.52
2023-04-12T13:08:25.366Z,0.31
2023-04-12T13:09:25.390Z,0.39
2023-04-12T13:10:25.371Z,0.49
2023-04-12T13:11:25.443Z,0.29
2023-04-12T13:12:25.414Z,0.46
2023-04-12T13:13:25.401Z,0.60
2023-04-12T13:14:25.359Z,0.26
2023-04-12T13:15:25.368Z,0.31
2023-04-12T13:16:26.964Z,0.54
2023-04-12T13:17:25.347Z,0.43
2023-04-12T13:18:25.312Z,0.43
2023-04-12T13:19:25.343Z,0.38